createdAt,value
2019-03-27T00:01:40.219Z,57.50
2019-03-27T00:04:13.640Z,57.50
2019-03-27T00:06:47.080Z,57.50
2019-03-27T00:09:20.515Z,57.50
2019-03-27T00:11:53.940Z,57.50
2019-03-27T00:14:27.373Z,57.40
2019-03-27T00:17:00.811Z,57.40
2019-03-27T00:19:34.235Z,57.50
2019-03-27T00:22:07.673Z,57.50
2019-03-27T00:24:41.095Z,57.50
2019-03-27T00:27:14.532Z,57.50
2019-03-27T00:29:47.961Z,57.50
2019-03-27T00:32:21.396Z,57.50
2019-03-27T00:34:54.819Z,57.60
2019-03-27T00:37:28.261Z,57.70
2019-03-27T00:40:01.678Z,57.90
2019-03-27T00:42:35.124Z,58.00
2019-03-27T00:45:09.481Z,58.00
2019-03-27T00:47:42.939Z,58.00
2019-03-27T00:50:16.567Z,58.10
2019-03-27T00:52:50.004Z,58.10
2019-03-27T00:55:23.503Z,58.20
2019-03-27T00:57:56.945Z,58.10
2019-03-27T01:00:45.432Z,58.30
2019-03-27T01:03:18.924Z,58.50
2019-03-27T01:05:52.355Z,58.40
2019-03-27T01:08:25.854Z,58.40
2019-03-27T01:10:59.281Z,58.60
2019-03-27T01:13:32.783Z,58.50
2019-03-27T01:16:06.212Z,58.60
2019-03-27T01:18:39.654Z,58.70
2019-03-27T01:21:13.439Z,58.90
2019-03-27T01:23:46.881Z,59.00
2019-03-27T01:26:20.300Z,59.10
2019-03-27T01:28:53.745Z,59.20
2019-03-27T01:31:27.345Z,59.80
2019-03-27T01:34:00.781Z,59.40
2019-03-27T01:36:34.209Z,59.40
2019-03-27T01:39:08.116Z,59.40
2019-03-27T01:41:41.532Z,59.60
2019-03-27T01:44:14.968Z,59.70
2019-03-27T01:46:48.404Z,59.80
2019-03-27T01:49:21.844Z,59.90
2019-03-27T01:51:55.268Z,60.00
2019-03-27T01:54:28.703Z,59.90
2019-03-27T01:57:02.127Z,59.80
2019-03-27T01:59:35.581Z,59.90
2019-03-27T02:02:09.239Z,59.90
2019-03-27T02:04:42.737Z,59.90
2019-03-27T02:07:16.160Z,59.90
2019-03-27T02:09:49.601Z,59.90
2019-03-27T02:12:23.036Z,59.90
2019-03-27T02:14:56.473Z,59.80
2019-03-27T02:17:29.891Z,59.80
2019-03-27T02:20:04.173Z,59.90
2019-03-27T02:22:37.625Z,60.00
2019-03-27T02:25:11.108Z,60.20
2019-03-27T02:27:44.568Z,60.20
2019-03-27T02:30:17.991Z,60.30
2019-03-27T02:32:51.438Z,60.60
2019-03-27T02:35:24.876Z,60.80
2019-03-27T02:37:58.380Z,60.80
2019-03-27T02:40:31.792Z,60.90
2019-03-27T02:43:05.235Z,60.90
2019-03-27T02:45:38.657Z,60.90
2019-03-27T02:48:14.035Z,60.80
2019-03-27T02:50:47.266Z,60.60
2019-03-27T02:53:20.723Z,60.60
2019-03-27T02:55:54.144Z,60.60
2019-03-27T02:58:27.579Z,60.60
2019-03-27T03:01:01.065Z,60.70
2019-03-27T03:03:34.501Z,60.90
2019-03-27T03:06:07.922Z,60.80
2019-03-27T03:08:41.355Z,61.00
2019-03-27T03:11:14.880Z,61.10
2019-03-27T03:13:48.601Z,61.30
2019-03-27T03:16:22.030Z,61.40
2019-03-27T03:18:55.467Z,61.50
2019-03-27T03:21:28.884Z,61.70
2019-03-27T03:24:02.323Z,61.80
2019-03-27T03:26:35.751Z,61.70
2019-03-27T03:29:09.175Z,61.70
2019-03-27T03:31:42.600Z,61.60
2019-03-27T03:34:16.159Z,61.50
2019-03-27T03:36:50.008Z,61.60
2019-03-27T03:39:23.438Z,61.60
2019-03-27T03:41:56.877Z,61.60
2019-03-27T03:44:30.308Z,61.60
2019-03-27T03:47:03.742Z,61.80
2019-03-27T03:49:37.185Z,61.90
2019-03-27T03:52:10.773Z,61.90
2019-03-27T03:54:44.228Z,61.90
2019-03-27T03:57:17.915Z,61.80
2019-03-27T03:59:52.389Z,62.10
2019-03-27T04:02:28.152Z,62.40
2019-03-27T04:05:03.609Z,62.70
2019-03-27T04:07:37.101Z,63.00
2019-03-27T04:10:10.605Z,63.10
2019-03-27T04:12:44.030Z,63.30
2019-03-27T04:15:17.466Z,63.30
2019-03-27T04:17:50.886Z,63.40
2019-03-27T04:20:24.434Z,63.60
2019-03-27T04:22:57.866Z,63.70
2019-03-27T04:25:53.835Z,63.70
2019-03-27T04:28:06.456Z,63.70
2019-03-27T04:30:39.895Z,63.90
2019-03-27T04:33:13.417Z,63.80
2019-03-27T04:35:46.973Z,63.90
2019-03-27T04:38:20.391Z,64.10
2019-03-27T04:40:53.825Z,64.00
2019-03-27T04:43:27.263Z,64.20
2019-03-27T04:46:00.688Z,64.20
2019-03-27T04:48:34.130Z,64.20
2019-03-27T04:51:07.703Z,64.20
2019-03-27T04:53:41.128Z,64.30
2019-03-27T04:56:14.573Z,64.40
2019-03-27T04:58:47.997Z,64.60
2019-03-27T05:01:21.446Z,64.40
2019-03-27T05:03:55.235Z,64.10
2019-03-27T05:06:28.677Z,64.00
2019-03-27T05:09:02.109Z,64.10
2019-03-27T05:11:35.688Z,64.00
2019-03-27T05:14:09.121Z,64.10
2019-03-27T05:16:42.559Z,64.10
2019-03-27T05:19:15.977Z,64.30
2019-03-27T05:21:49.429Z,64.40
2019-03-27T05:24:22.908Z,64.40
2019-03-27T05:26:56.352Z,64.30
2019-03-27T05:29:29.771Z,64.40
2019-03-27T05:32:03.195Z,64.40
2019-03-27T05:34:36.625Z,64.50
2019-03-27T05:37:10.063Z,64.40
2019-03-27T05:39:43.515Z,64.40
2019-03-27T05:42:16.944Z,64.40
2019-03-27T05:44:50.360Z,64.50
2019-03-27T05:47:23.821Z,64.60
2019-03-27T05:49:57.241Z,64.60
2019-03-27T05:52:30.671Z,64.90
2019-03-27T05:55:05.345Z,64.90
2019-03-27T05:57:38.787Z,64.80
2019-03-27T06:00:14.073Z,64.80
2019-03-27T06:02:47.502Z,64.80
2019-03-27T06:05:20.940Z,64.90
2019-03-27T06:07:54.415Z,64.80
2019-03-27T06:10:27.904Z,64.90
2019-03-27T06:13:01.331Z,64.90
2019-03-27T06:15:34.761Z,65.00
2019-03-27T06:18:13.197Z,64.70
2019-03-27T06:20:43.338Z,64.80
2019-03-27T06:23:16.782Z,64.70
2019-03-27T06:25:50.196Z,64.60
2019-03-27T06:28:23.632Z,64.60
2019-03-27T06:30:57.051Z,64.40
2019-03-27T06:33:30.512Z,64.40
2019-03-27T06:36:03.942Z,64.50
2019-03-27T06:38:37.362Z,64.50
2019-03-27T06:41:10.871Z,64.40
2019-03-27T06:43:44.306Z,64.10
2019-03-27T06:46:17.720Z,63.80
2019-03-27T06:48:51.263Z,63.70
2019-03-27T06:51:25.253Z,63.70
2019-03-27T06:53:59.172Z,63.70
2019-03-27T06:56:32.604Z,63.50
2019-03-27T06:59:06.049Z,63.50
2019-03-27T07:01:39.462Z,63.30
2019-03-27T07:04:12.900Z,63.30
2019-03-27T07:06:46.315Z,63.50
2019-03-27T07:09:19.827Z,63.30
2019-03-27T07:11:53.469Z,63.00
2019-03-27T07:14:26.909Z,62.70
2019-03-27T07:17:00.337Z,62.60
2019-03-27T07:19:33.825Z,62.30
2019-03-27T07:22:07.252Z,61.80
2019-03-27T07:24:40.686Z,61.60
2019-03-27T07:27:14.117Z,61.40
2019-03-27T07:29:47.545Z,60.70
2019-03-27T07:32:21.345Z,61.00
2019-03-27T07:34:54.787Z,61.00
2019-03-27T07:37:28.226Z,60.50
2019-03-27T07:40:01.693Z,60.40
2019-03-27T07:42:35.129Z,59.90
2019-03-27T07:45:09.929Z,59.80
2019-03-27T07:47:43.558Z,59.30
2019-03-27T07:50:17.129Z,59.20
2019-03-27T07:52:50.561Z,58.80
2019-03-27T07:55:23.972Z,58.60
2019-03-27T07:57:57.443Z,58.70
2019-03-27T08:00:30.869Z,58.50
2019-03-27T08:03:04.383Z,58.50
2019-03-27T08:05:37.808Z,58.30
2019-03-27T08:08:11.284Z,57.30
2019-03-27T08:10:45.261Z,57.00
2019-03-27T08:13:18.704Z,56.60
2019-03-27T08:15:52.128Z,56.10
2019-03-27T08:18:25.572Z,55.50
2019-03-27T08:20:59.014Z,55.20
2019-03-27T08:23:32.457Z,55.00
2019-03-27T08:26:05.879Z,54.40
2019-03-27T08:28:39.329Z,53.90
2019-03-27T08:31:12.791Z,53.50
2019-03-27T08:33:46.242Z,53.10
2019-03-27T08:36:19.660Z,52.80
2019-03-27T08:38:53.099Z,52.60
2019-03-27T08:41:26.532Z,52.30
2019-03-27T08:43:59.982Z,52.20
2019-03-27T08:46:33.401Z,52.00
2019-03-27T08:49:20.824Z,51.80
2019-03-27T08:51:41.969Z,51.70
2019-03-27T08:54:15.408Z,51.50
2019-03-27T08:56:48.843Z,51.00
2019-03-27T08:59:22.299Z,50.70
2019-03-27T09:01:55.785Z,50.40
2019-03-27T09:04:29.218Z,49.70
2019-03-27T09:07:02.648Z,50.20
2019-03-27T09:09:36.164Z,49.80
2019-03-27T09:12:09.603Z,49.40
2019-03-27T09:14:43.040Z,48.90
2019-03-27T09:17:16.476Z,48.60
2019-03-27T09:19:49.911Z,48.90
2019-03-27T09:22:23.360Z,48.70
2019-03-27T09:24:56.796Z,48.60
2019-03-27T09:27:30.220Z,48.50
2019-03-27T09:30:05.469Z,48.20
2019-03-27T09:32:38.895Z,48.00
2019-03-27T09:35:12.425Z,47.40
2019-03-27T09:37:45.849Z,46.70
2019-03-27T09:40:19.356Z,46.10
2019-03-27T09:42:52.785Z,45.20
2019-03-27T09:45:26.321Z,44.60
2019-03-27T09:47:59.729Z,44.20
2019-03-27T09:50:33.163Z,44.20
2019-03-27T09:53:06.586Z,44.20
2019-03-27T09:55:40.027Z,44.40
2019-03-27T09:58:13.457Z,44.60
2019-03-27T10:00:54.759Z,44.70
2019-03-27T10:03:28.184Z,44.70
2019-03-27T10:06:01.739Z,44.80
2019-03-27T10:08:35.318Z,44.60
2019-03-27T10:11:08.755Z,44.50
2019-03-27T10:13:42.181Z,44.30
2019-03-27T10:16:15.632Z,44.20
2019-03-27T10:18:49.081Z,44.20
2019-03-27T10:21:22.591Z,43.50
2019-03-27T10:23:56.021Z,43.30
2019-03-27T10:26:29.456Z,43.10
2019-03-27T10:29:03.155Z,42.80
2019-03-27T10:31:36.608Z,42.20
2019-03-27T10:34:10.036Z,42.00
2019-03-27T10:36:43.493Z,42.00
2019-03-27T10:39:16.920Z,42.10
2019-03-27T10:41:50.359Z,42.00
2019-03-27T10:44:23.780Z,41.70
2019-03-27T10:46:57.222Z,41.60
2019-03-27T10:49:30.640Z,41.40
2019-03-27T10:52:04.170Z,41.40
2019-03-27T10:54:37.620Z,41.20
2019-03-27T10:57:11.055Z,41.20
2019-03-27T10:59:44.471Z,41.20
2019-03-27T11:02:17.909Z,40.80
2019-03-27T11:04:51.341Z,40.00
2019-03-27T11:07:24.787Z,40.00
2019-03-27T11:09:58.271Z,40.00
2019-03-27T11:12:31.707Z,39.80
2019-03-27T11:15:08.964Z,39.80
2019-03-27T11:17:42.458Z,39.70
2019-03-27T11:20:15.955Z,39.50
2019-03-27T11:22:49.385Z,39.30
2019-03-27T11:25:22.821Z,38.70
2019-03-27T11:27:56.259Z,38.30
2019-03-27T11:30:35.168Z,38.60
2019-03-27T11:33:09.298Z,38.70
2019-03-27T11:35:42.938Z,38.70
2019-03-27T11:38:16.369Z,38.50
2019-03-27T11:40:49.795Z,38.40
2019-03-27T11:43:23.220Z,38.70
2019-03-27T11:45:56.638Z,38.70
2019-03-27T11:48:30.083Z,38.90
2019-03-27T11:51:03.530Z,39.10
2019-03-27T11:53:36.980Z,39.00
2019-03-27T11:56:10.402Z,38.90
2019-03-27T11:58:43.837Z,38.80
2019-03-27T12:01:17.748Z,38.60
2019-03-27T12:03:51.365Z,38.60
2019-03-27T12:06:24.893Z,38.50
2019-03-27T12:08:58.463Z,38.30
2019-03-27T12:11:31.880Z,37.80
2019-03-27T12:14:05.398Z,37.80
2019-03-27T12:16:38.889Z,37.80
2019-03-27T12:19:12.329Z,37.60
2019-03-27T12:21:45.758Z,37.40
2019-03-27T12:24:19.179Z,37.50
2019-03-27T12:26:52.674Z,37.40
2019-03-27T12:29:26.127Z,37.10
2019-03-27T12:31:59.555Z,37.10
2019-03-27T12:34:33.097Z,36.80
2019-03-27T12:37:06.641Z,36.80
2019-03-27T12:39:41.007Z,36.80
2019-03-27T12:42:14.749Z,36.90
2019-03-27T12:44:48.168Z,36.70
2019-03-27T12:47:21.622Z,36.70
2019-03-27T12:49:55.944Z,36.70
2019-03-27T12:52:29.390Z,36.50
2019-03-27T12:55:02.980Z,36.80
2019-03-27T12:57:36.413Z,36.80
2019-03-27T13:00:11.067Z,36.80
2019-03-27T13:02:44.504Z,36.70
2019-03-27T13:05:18.000Z,36.80
2019-03-27T13:07:51.441Z,36.90
2019-03-27T13:10:24.856Z,36.90
2019-03-27T13:12:58.357Z,36.70
2019-03-27T13:15:31.777Z,37.00
2019-03-27T13:18:05.208Z,37.00
2019-03-27T13:20:38.718Z,36.60
2019-03-27T13:23:12.277Z,36.70
2019-03-27T13:25:45.717Z,36.50
2019-03-27T13:28:19.153Z,36.10
2019-03-27T13:30:52.585Z,36.00
2019-03-27T13:33:26.016Z,35.90
2019-03-27T13:35:59.441Z,36.00
2019-03-27T13:38:32.874Z,35.80
2019-03-27T13:41:06.299Z,35.50
2019-03-27T13:43:39.744Z,35.50
2019-03-27T13:46:13.173Z,35.40
2019-03-27T13:48:46.600Z,35.20
2019-03-27T13:51:20.021Z,35.50
2019-03-27T13:53:53.461Z,35.60
2019-03-27T13:56:26.884Z,35.70
2019-03-27T13:59:00.319Z,35.80
2019-03-27T14:01:33.751Z,35.90
2019-03-27T14:04:07.264Z,35.80
2019-03-27T14:06:40.851Z,35.70
2019-03-27T14:09:14.508Z,35.50
2019-03-27T14:11:47.925Z,35.40
2019-03-27T14:14:21.368Z,35.40
2019-03-27T14:16:54.794Z,35.20
2019-03-27T14:19:28.235Z,35.20
2019-03-27T14:22:01.663Z,35.30
2019-03-27T14:24:35.107Z,35.10
2019-03-27T14:27:08.565Z,35.10
2019-03-27T14:29:42.164Z,35.00
2019-03-27T14:32:15.603Z,35.10
2019-03-27T14:34:49.079Z,35.20
2019-03-27T14:37:22.515Z,35.30
2019-03-27T14:39:55.947Z,35.40
2019-03-27T14:42:29.355Z,35.20
2019-03-27T14:45:02.944Z,35.20
2019-03-27T14:47:36.804Z,35.00
2019-03-27T14:50:10.970Z,34.80
2019-03-27T14:52:44.398Z,34.80
2019-03-27T14:55:17.824Z,34.70
2019-03-27T14:57:51.243Z,34.60
2019-03-27T15:00:24.676Z,34.60
2019-03-27T15:02:58.099Z,34.60
2019-03-27T15:05:31.539Z,34.70
2019-03-27T15:08:05.089Z,34.70
2019-03-27T15:10:38.545Z,34.90
2019-03-27T15:13:15.137Z,35.00
2019-03-27T15:15:47.197Z,34.80
2019-03-27T15:18:20.710Z,34.40
2019-03-27T15:20:54.128Z,33.40
2019-03-27T15:23:27.556Z,33.00
2019-03-27T15:26:00.989Z,32.20
2019-03-27T15:28:34.513Z,31.40
2019-03-27T15:31:19.898Z,31.00
2019-03-27T15:33:43.096Z,30.20
2019-03-27T15:36:16.532Z,29.70
2019-03-27T15:38:49.950Z,29.60
2019-03-27T15:41:23.380Z,29.70
2019-03-27T15:43:56.814Z,29.90
2019-03-27T15:46:30.243Z,29.60
2019-03-27T15:49:03.669Z,29.70
2019-03-27T15:51:37.103Z,29.80
2019-03-27T15:54:10.529Z,30.10
2019-03-27T15:56:43.968Z,30.90
2019-03-27T15:59:17.392Z,31.70
2019-03-27T16:01:50.892Z,32.40
2019-03-27T16:04:24.420Z,33.10
2019-03-27T16:06:57.856Z,33.60
2019-03-27T16:09:31.280Z,33.80
2019-03-27T16:12:05.091Z,34.00
2019-03-27T16:14:38.525Z,34.40
2019-03-27T16:17:13.559Z,34.70
2019-03-27T16:19:47.351Z,34.90
2019-03-27T16:22:20.812Z,35.20
2019-03-27T16:24:54.233Z,35.80
2019-03-27T16:27:27.667Z,36.40
2019-03-27T16:30:01.108Z,37.00
2019-03-27T16:32:34.548Z,37.30
2019-03-27T16:35:08.609Z,37.70
2019-03-27T16:37:42.044Z,37.90
2019-03-27T16:40:17.481Z,38.10
2019-03-27T16:42:50.917Z,38.40
2019-03-27T16:45:24.384Z,38.50
2019-03-27T16:47:57.804Z,38.60
2019-03-27T16:50:31.252Z,38.60
2019-03-27T16:53:04.848Z,38.70
2019-03-27T16:55:38.296Z,39.00
2019-03-27T16:58:11.731Z,39.40
2019-03-27T17:00:45.164Z,39.80
2019-03-27T17:03:18.664Z,40.40
2019-03-27T17:05:54.254Z,41.00
2019-03-27T17:08:27.268Z,41.30
2019-03-27T17:11:00.695Z,41.40
2019-03-27T17:13:34.129Z,41.70
2019-03-27T17:16:07.566Z,41.30
2019-03-27T17:18:40.982Z,41.20
2019-03-27T17:21:14.422Z,41.40
2019-03-27T17:23:47.980Z,41.50
2019-03-27T17:26:21.506Z,41.60
2019-03-27T17:29:14.264Z,41.70
2019-03-27T17:31:47.705Z,41.60
2019-03-27T17:34:21.129Z,42.00
2019-03-27T17:36:54.560Z,42.40
2019-03-27T17:39:27.995Z,42.50
2019-03-27T17:42:01.439Z,42.60
2019-03-27T17:44:34.865Z,42.80
2019-03-27T17:47:08.310Z,42.80
2019-03-27T17:49:41.810Z,43.00
2019-03-27T17:52:15.249Z,43.00
2019-03-27T17:54:48.680Z,43.20
2019-03-27T17:57:22.120Z,43.30
2019-03-27T17:59:55.532Z,43.60
2019-03-27T18:02:28.971Z,43.70
2019-03-27T18:05:02.394Z,43.80
2019-03-27T18:07:35.831Z,43.90
2019-03-27T18:10:09.709Z,43.90
2019-03-27T18:12:43.155Z,43.80
2019-03-27T18:15:16.654Z,43.80
2019-03-27T18:17:50.092Z,44.20
2019-03-27T18:20:23.515Z,43.70
2019-03-27T18:22:56.955Z,43.80
2019-03-27T18:25:30.379Z,43.90
2019-03-27T18:28:04.293Z,44.10
2019-03-27T18:30:37.852Z,44.40
2019-03-27T18:33:11.325Z,44.70
2019-03-27T18:35:44.739Z,44.80
2019-03-27T18:38:18.187Z,45.00
2019-03-27T18:40:51.613Z,45.00
2019-03-27T18:43:25.056Z,44.90
2019-03-27T18:45:58.485Z,45.00
2019-03-27T18:48:31.920Z,45.20
2019-03-27T18:51:05.377Z,45.20
2019-03-27T18:53:38.859Z,45.20
2019-03-27T18:56:12.292Z,45.30
2019-03-27T18:58:45.732Z,45.20
2019-03-27T19:01:19.156Z,45.30
2019-03-27T19:03:52.652Z,45.30
2019-03-27T19:06:26.074Z,45.50
2019-03-27T19:08:59.509Z,45.70
2019-03-27T19:11:32.937Z,45.90
2019-03-27T19:14:06.406Z,46.20
2019-03-27T19:16:39.863Z,46.50
2019-03-27T19:19:13.304Z,46.70
2019-03-27T19:21:46.725Z,46.90
2019-03-27T19:24:20.161Z,47.30
2019-03-27T19:26:53.583Z,47.80
2019-03-27T19:29:27.105Z,48.70
2019-03-27T19:32:00.533Z,48.50
2019-03-27T19:34:33.973Z,48.70
2019-03-27T19:37:07.409Z,48.60
2019-03-27T19:39:40.913Z,48.50
2019-03-27T19:42:14.404Z,48.40
2019-03-27T19:44:47.846Z,48.40
2019-03-27T19:47:21.349Z,48.50
2019-03-27T19:49:54.778Z,48.50
2019-03-27T19:52:28.192Z,48.60
2019-03-27T19:55:01.629Z,48.60
2019-03-27T19:57:35.131Z,48.70
2019-03-27T20:00:10.508Z,48.90
2019-03-27T20:02:43.998Z,49.10
2019-03-27T20:05:18.656Z,49.30
2019-03-27T20:07:52.075Z,49.40
2019-03-27T20:10:25.515Z,49.60
2019-03-27T20:12:58.944Z,49.70
2019-03-27T20:15:32.375Z,49.90
2019-03-27T20:18:05.812Z,50.10
2019-03-27T20:20:39.247Z,50.30
2019-03-27T20:23:15.327Z,50.60
2019-03-27T20:25:47.840Z,50.70
2019-03-27T20:28:21.256Z,50.90
2019-03-27T20:30:54.691Z,51.00
2019-03-27T20:33:28.127Z,50.90
2019-03-27T20:36:03.059Z,51.00
2019-03-27T20:38:36.769Z,51.10
2019-03-27T20:41:10.215Z,51.20
2019-03-27T20:43:43.641Z,51.20
2019-03-27T20:46:24.817Z,51.10
2019-03-27T20:48:52.290Z,51.20
2019-03-27T20:51:25.727Z,51.10
2019-03-27T20:54:01.438Z,51.00
2019-03-27T20:56:34.317Z,51.00
2019-03-27T20:59:07.872Z,50.90
2019-03-27T21:01:41.308Z,51.00
2019-03-27T21:04:14.727Z,51.20
2019-03-27T21:06:48.171Z,51.30
2019-03-27T21:09:21.597Z,51.50
2019-03-27T21:11:56.170Z,51.60
2019-03-27T21:14:29.924Z,51.70
2019-03-27T21:17:03.356Z,51.70
2019-03-27T21:19:36.782Z,51.90
2019-03-27T21:22:10.222Z,51.90
2019-03-27T21:24:43.631Z,52.80
2019-03-27T21:27:17.083Z,52.90
2019-03-27T21:29:50.562Z,53.00
2019-03-27T21:32:23.983Z,53.00
2019-03-27T21:34:57.480Z,52.30
2019-03-27T21:37:30.916Z,53.20
2019-03-27T21:40:06.768Z,53.20
2019-03-27T21:42:40.196Z,53.20
2019-03-27T21:45:14.152Z,53.20
2019-03-27T21:47:47.583Z,53.10
2019-03-27T21:50:21.003Z,53.00
2019-03-27T21:53:00.475Z,53.00
2019-03-27T21:55:41.901Z,53.10
2019-03-27T21:58:04.810Z,53.20
2019-03-27T22:00:39.592Z,53.30
2019-03-27T22:03:13.099Z,53.40
2019-03-27T22:05:46.516Z,53.50
2019-03-27T22:08:20.024Z,53.50
2019-03-27T22:10:53.461Z,53.50
2019-03-27T22:13:26.945Z,53.60
2019-03-27T22:16:00.366Z,53.80
2019-03-27T22:18:33.809Z,53.80
2019-03-27T22:21:07.219Z,53.90
2019-03-27T22:23:40.648Z,53.80
2019-03-27T22:26:14.069Z,54.00
2019-03-27T22:28:47.527Z,53.90
2019-03-27T22:31:21.001Z,54.00
2019-03-27T22:33:54.436Z,54.10
2019-03-27T22:36:27.851Z,54.10
2019-03-27T22:39:01.286Z,54.20
2019-03-27T22:41:34.704Z,54.20
2019-03-27T22:44:08.137Z,54.20
2019-03-27T22:46:41.549Z,54.20
2019-03-27T22:49:14.987Z,54.20
2019-03-27T22:51:48.413Z,54.20
2019-03-27T22:54:22.281Z,54.20
2019-03-27T22:56:55.698Z,54.30
2019-03-27T22:59:29.129Z,54.30
2019-03-27T23:02:02.610Z,54.50
2019-03-27T23:04:36.039Z,54.50
2019-03-27T23:07:09.456Z,54.50
2019-03-27T23:09:42.893Z,54.60
2019-03-27T23:12:16.312Z,54.60
2019-03-27T23:14:49.739Z,54.70
2019-03-27T23:17:23.157Z,54.90
2019-03-27T23:19:56.601Z,54.90
2019-03-27T23:22:30.016Z,55.10
2019-03-27T23:25:03.808Z,55.20
2019-03-27T23:27:37.274Z,55.10
2019-03-27T23:30:11.381Z,55.20
2019-03-27T23:32:44.804Z,55.30
2019-03-27T23:35:18.347Z,55.40
2019-03-27T23:37:52.240Z,55.50
2019-03-27T23:40:25.663Z,55.70
2019-03-27T23:42:59.200Z,55.60
2019-03-27T23:45:32.692Z,55.70
2019-03-27T23:48:06.119Z,55.80
2019-03-27T23:50:39.546Z,55.90
2019-03-27T23:53:12.971Z,55.90
2019-03-27T23:55:46.396Z,55.90
2019-03-27T23:58:19.812Z,56.00
